Pagrindinis puslapis
METAR-TAF:

METAR-TAF

Oro uostai :

Ankoridžas, Aliaska, Jungtinės Amerikos Valstijos

platuma: 61-10-28N, ilguma: 149-59-46W, Aukštis: 44 m

Dabartinis oras

Ataskaita buvo paskelbta 40 minutes, ne 15:53 UTC
Vėjas 3 kt iš Rytų/Pietryčių
Temperatūra 2°C
Drėgmė 93%
Slėgis 1003 hPa
Matomumas: 16.1 km
Mažai debesys ne aukštis 6000 ft

METAR: PANC 221553Z 11003KT 10SM FEW060 02/01 A2961 RMK AO2 SLP029 MIFG E T00220011 $

Laikas: 08:33 (16:33 UTC)

Prognozė

Ataskaita buvo paskelbta 5 valandos ir 11 minutes, ne 11:22 UTC
Prognozė galioja nuo 22 metu 12 UTC su 23 metu 18 UTC
Vėjas 4 kt nuo kintamojo kryptimis
Matomumas: 10 km
Giedras dangus
Nuo 23 metu 0000 UTC
Vėjas 5 kt iš Šiaurės/Šiaurės Rytų
Matomumas: 10 km
Su prošvaistėmis ne aukštis 10000 ft

TAF: PANC 221122Z 2212/2318 VRB04KT P6SM SKC FM230000 02005KT P6SM BKN100

Orai ataskaitas ir orų prognozės (METAR, TAF).

turimą stotys yra geltonos ir raudonos taškus žemėlapyje.

Perkelti pele per norėdami pamatyti stoties vardą.

Tada spustelėkite, norėdami matyti oro stebėjimo ir prognozės.

Norėdami pakeisti žemėlapį: spustelėkite ant žalios mygtukų su juodo kryžiaus žemyn,; žalią mygtuką su brūkšneliu, jei norite nutolinti; arba žalių rodyklių gretimoms žemėlapius.


METAR-TAF: